Time;durP1;ratioP1;P1;durP2;ratioP2;P2;SDS_P1;SDS_P2;PMS_P1;PMS_P2;Temp;Humidity;BMP_temperature;BMP_pressure;BME280_temperature;BME280_humidity;BME280_pressure;Samples;Min_cycle;Max_cycle;Signal;HPM_P1;HPM_P2
2022/04/18 00:02:18;;;;;;;;;1.00;1.00;;;;;20.12;24.90;101289.66;4975013;28;45460;-51
2022/04/18 00:04:44;;;;;;;;;1.25;1.25;;;;;20.13;25.20;101285.22;4975143;28;45417;-62
2022/04/18 00:07:10;;;;;;;;;1.00;1.00;;;;;20.13;24.78;101279.97;4974902;28;45174;-61
2022/04/18 00:09:35;;;;;;;;;1.00;1.00;;;;;20.13;25.17;101274.69;4974544;28;46160;-54
2022/04/18 00:12:01;;;;;;;;;2.25;2.25;;;;;20.12;25.19;101273.84;4974477;28;45228;-58
2022/04/18 00:14:27;;;;;;;;;3.50;2.00;;;;;20.14;25.24;101271.13;4974657;28;45412;-57
2022/04/18 00:16:52;;;;;;;;;2.25;1.00;;;;;20.14;25.15;101266.75;4974752;28;45264;-64
2022/04/18 00:19:17;;;;;;;;;1.00;1.00;;;;;20.14;24.99;101260.63;4974272;28;45830;-57
2022/04/18 00:21:43;;;;;;;;;2.00;2.00;;;;;20.16;25.31;101264.03;4974657;28;45188;-68
2022/04/18 00:24:10;;;;;;;;;2.25;2.00;;;;;20.16;24.92;101274.56;4973143;28;45415;-61
2022/04/18 00:26:37;;;;;;;;;4.00;2.25;;;;;20.17;25.01;101269.25;4974541;28;45458;-63
2022/04/18 00:29:02;;;;;;;;;1.00;1.00;;;;;20.18;25.16;101255.13;4974182;28;46509;-60
2022/04/18 00:31:28;;;;;;;;;2.00;2.00;;;;;20.17;25.14;101247.31;4974182;28;45349;-66
2022/04/18 00:33:53;;;;;;;;;1.00;1.00;;;;;20.19;24.72;101245.47;4974384;28;45311;-65
2022/04/18 00:36:18;;;;;;;;;2.00;2.00;;;;;20.19;24.92;101245.47;4974159;28;45510;-67
2022/04/18 00:38:44;;;;;;;;;2.00;2.00;;;;;20.19;25.20;101246.31;4974472;28;46902;-67
2022/04/18 00:41:09;;;;;;;;;3.00;3.00;;;;;20.20;25.00;101249.81;4974145;28;45182;-67
2022/04/18 00:43:49;;;;;;;;;2.00;2.00;;;;;20.20;25.11;101244.56;4974408;28;45617;-67
2022/04/18 00:46:16;;;;;;;;;1.00;1.00;;;;;20.20;25.08;101242.75;4974896;28;45402;-64
2022/04/18 00:48:43;;;;;;;;;1.50;1.50;;;;;20.19;25.04;101241.06;4974167;28;45548;-62
2022/04/18 00:51:11;;;;;;;;;1.25;1.25;;;;;20.19;25.07;101232.31;4973140;28;45784;-62
2022/04/18 00:53:37;;;;;;;;;0.25;0.25;;;;;20.19;25.21;101233.16;4974246;28;45430;-68
2022/04/18 00:56:05;;;;;;;;;2.25;2.25;;;;;20.19;24.92;101232.31;4974126;28;45531;-66
2022/04/18 00:58:30;;;;;;;;;1.00;1.00;;;;;20.18;25.27;101236.72;4973902;28;46383;-63
2022/04/18 01:00:56;;;;;;;;;1.50;1.50;;;;;20.17;25.01;101231.53;4973871;28;45343;-68
2022/04/18 01:03:22;;;;;;;;;2.00;2.00;;;;;20.18;25.22;101238.50;4974087;28;45367;-62
2022/04/18 01:05:47;;;;;;;;;2.00;2.00;;;;;20.18;25.28;101235.88;4974503;28;45332;-67
2022/04/18 01:08:14;;;;;;;;;2.00;2.00;;;;;20.18;24.92;101233.25;4972390;28;47067;-67
2022/04/18 01:10:40;;;;;;;;;2.00;2.00;;;;;20.17;25.14;101235.03;4973800;28;45178;-67
2022/04/18 01:13:05;;;;;;;;;2.00;2.00;;;;;20.18;25.10;101235.88;4973588;28;45397;-68
2022/04/18 01:15:31;;;;;;;;;2.00;1.50;;;;;20.17;24.80;101229.78;4973927;28;45584;-68
2022/04/18 01:17:56;;;;;;;;;3.00;2.00;;;;;20.18;24.81;101235.88;4972402;28;47165;-68
2022/04/18 01:20:22;;;;;;;;;1.25;1.00;;;;;20.17;24.89;101221.00;4973636;28;45438;-66
2022/04/18 01:22:51;;;;;;;;;2.00;2.00;;;;;20.17;24.72;101215.75;4973903;28;45331;-68
2022/04/18 01:30:53;;;;;;;;;2.50;1.25;;;;;20.17;25.41;101224.50;4973618;28;45354;-65
2022/04/18 01:33:18;;;;;;;;;2.00;2.00;;;;;20.18;24.94;101220.91;4973871;28;45240;-57
2022/04/18 01:35:43;;;;;;;;;1.50;1.50;;;;;20.19;25.31;101217.38;4973822;28;45376;-63
2022/04/18 01:38:09;;;;;;;;;3.00;2.75;;;;;20.19;25.28;101216.53;4973393;28;46412;-60
2022/04/18 01:40:34;;;;;;;;;3.00;3.00;;;;;20.19;25.01;101216.53;4973343;28;45452;-61
2022/04/18 01:42:59;;;;;;;;;0.00;0.00;;;;;20.20;24.96;101218.22;4972046;28;45413;-64
2022/04/18 01:45:25;;;;;;;;;2.50;1.25;;;;;20.19;25.20;101211.25;4973462;28;45433;-68
2022/04/18 01:47:50;;;;;;;;;2.00;1.50;;;;;20.17;24.82;101206.09;4973738;28;45418;-59
2022/04/18 01:50:15;;;;;;;;;1.75;1.00;;;;;20.17;25.17;101202.59;4976328;28;45284;-54
2022/04/18 01:52:41;;;;;;;;;1.00;1.00;;;;;20.17;25.06;101205.22;4975244;28;45390;-59
2022/04/18 01:55:07;;;;;;;;;2.00;2.00;;;;;20.16;25.33;101208.78;4976314;28;45374;-64
2022/04/18 01:57:32;;;;;;;;;2.75;2.00;;;;;20.15;25.38;101204.44;4974637;28;46567;-64
2022/04/18 01:59:57;;;;;;;;;3.00;3.00;;;;;20.15;25.00;101199.16;4976310;28;45410;-62
2022/04/18 02:02:23;;;;;;;;;2.50;2.50;;;;;20.14;24.66;101198.31;4974961;28;45438;-65
2022/04/18 02:04:48;;;;;;;;;3.25;3.00;;;;;20.16;25.29;101195.59;4976796;28;45521;-62
2022/04/18 02:07:14;;;;;;;;;1.25;1.25;;;;;20.16;24.79;101198.25;4975863;28;46037;-62
2022/04/18 02:09:39;;;;;;;;;2.00;2.00;;;;;20.15;24.73;101196.53;4976224;28;45757;-67
2022/04/18 02:12:06;;;;;;;;;2.75;2.75;;;;;20.14;25.03;101197.47;4976260;28;45288;-66
2022/04/18 02:14:32;;;;;;;;;4.00;2.75;;;;;20.11;25.06;101189.72;4976176;28;45230;-67
2022/04/18 02:16:57;;;;;;;;;1.75;1.75;;;;;20.11;25.08;101193.19;4975788;28;45727;-68
2022/04/18 02:19:22;;;;;;;;;2.00;2.00;;;;;20.10;24.86;101195.91;4975972;28;45771;-56
2022/04/18 02:21:48;;;;;;;;;1.00;1.00;;;;;20.11;25.24;101192.38;4976389;28;45228;-67
2022/04/18 02:24:14;;;;;;;;;2.00;2.00;;;;;20.11;25.21;101200.25;4976179;28;45519;-67
2022/04/18 02:26:40;;;;;;;;;2.00;2.00;;;;;20.11;24.77;101189.72;4975658;28;45581;-63
2022/04/18 02:29:06;;;;;;;;;2.00;2.00;;;;;20.11;24.80;101187.94;4975817;28;45953;-63
2022/04/18 02:31:31;;;;;;;;;2.00;2.00;;;;;20.10;24.79;101186.22;4975843;28;45355;-62
2022/04/18 02:33:56;;;;;;;;;2.00;2.00;;;;;20.10;25.27;101188.03;4975913;28;45300;-57
2022/04/18 02:36:22;;;;;;;;;1.00;1.00;;;;;20.10;25.14;101183.59;4974528;28;45509;-55
2022/04/18 02:38:47;;;;;;;;;2.25;2.25;;;;;20.11;25.36;101182.69;4975636;28;45348;-56
2022/04/18 02:41:12;;;;;;;;;2.75;1.50;;;;;20.12;25.46;101176.50;4975539;28;48847;-68
2022/04/18 02:43:38;;;;;;;;;3.00;3.00;;;;;20.12;25.38;101175.66;4974784;28;45550;-68
2022/04/18 02:46:03;;;;;;;;;1.00;1.00;;;;;20.10;25.50;101172.25;4975348;28;45426;-60
2022/04/18 02:48:29;;;;;;;;;3.00;2.00;;;;;20.10;24.93;101167.81;4975625;28;45395;-54
2022/04/18 02:50:55;;;;;;;;;2.00;2.00;;;;;20.08;24.66;101170.53;4975743;28;45296;-57
2022/04/18 02:53:20;;;;;;;;;1.75;1.00;;;;;20.09;24.88;101176.63;4976097;28;45309;-62
2022/04/18 02:55:46;;;;;;;;;2.00;2.00;;;;;20.07;25.07;101176.72;4975244;28;46013;-61
2022/04/18 02:58:11;;;;;;;;;3.00;3.00;;;;;20.08;25.41;101173.16;4975367;28;45323;-63
2022/04/18 03:00:36;;;;;;;;;1.00;1.00;;;;;20.10;25.33;101174.88;4974289;28;45302;-57
2022/04/18 03:03:02;;;;;;;;;2.00;2.00;;;;;20.10;24.81;101174.88;4975624;28;45193;-59
2022/04/18 03:05:27;;;;;;;;;2.00;2.00;;;;;20.09;25.21;101176.63;4975258;28;45332;-60
2022/04/18 03:07:52;;;;;;;;;2.75;2.75;;;;;20.10;24.73;101182.75;4975559;28;45307;-64
2022/04/18 03:11:02;;;;;;;;;2.00;2.00;;;;;20.10;24.97;101174.88;4975455;28;45309;-59
2022/04/18 03:13:03;;;;;;;;;2.00;2.00;;;;;20.10;25.01;101174.88;4975559;28;45327;-61
2022/04/18 03:15:28;;;;;;;;;2.00;2.00;;;;;20.10;25.50;101174.88;4973948;28;46864;-66
2022/04/18 03:17:53;;;;;;;;;2.00;2.00;;;;;20.10;25.25;101172.25;4973982;28;49059;-60
2022/04/18 03:20:19;;;;;;;;;3.00;2.00;;;;;20.10;25.07;101174.88;4975152;28;45367;-66
2022/04/18 03:22:44;;;;;;;;;2.25;2.25;;;;;20.10;25.45;101169.59;4975226;28;45387;-50
2022/04/18 03:25:09;;;;;;;;;2.00;2.00;;;;;20.10;25.36;101172.25;4975065;28;46037;-55
2022/04/18 03:27:35;;;;;;;;;2.50;2.50;;;;;20.11;24.98;101171.31;4974574;28;59405;-60
2022/04/18 03:30:00;;;;;;;;;1.50;1.50;;;;;20.11;25.58;101166.88;4975068;28;45359;-66
2022/04/18 03:32:25;;;;;;;;;3.00;3.00;;;;;20.08;25.26;101165.25;4975608;28;45393;-68
2022/04/18 03:34:51;;;;;;;;;1.25;1.25;;;;;20.11;25.21;101166.03;4975180;28;45922;-68
2022/04/18 03:40:00;;;;;;;;;2.00;2.00;;;;;20.11;25.43;101168.69;4975113;28;45417;-68
2022/04/18 03:42:31;;;;;;;;;2.75;2.00;;;;;20.10;25.16;101167.81;4974160;28;45542;-68
2022/04/18 03:45:03;;;;;;;;;3.00;3.00;;;;;20.10;25.15;101169.59;4975004;28;46482;-68
2022/04/18 03:47:29;;;;;;;;;3.50;2.00;;;;;20.10;25.10;101159.06;4974881;28;45361;-68
2022/04/18 03:49:55;;;;;;;;;2.50;2.50;;;;;20.10;25.17;101159.06;4975261;28;45252;-67
2022/04/18 03:52:22;;;;;;;;;3.00;2.00;;;;;20.10;25.51;101157.28;4975096;28;45665;-63
2022/04/18 03:54:47;;;;;;;;;2.00;2.00;;;;;20.11;25.36;101156.34;4974689;28;46872;-67
2022/04/18 03:57:14;;;;;;;;;2.00;2.00;;;;;20.11;25.20;101155.53;4974798;28;45329;-67
2022/04/18 03:59:40;;;;;;;;;3.75;3.50;;;;;20.11;25.31;101160.78;4974787;28;45350;-68
2022/04/18 04:02:05;;;;;;;;;3.00;2.00;;;;;20.11;25.44;101166.03;4975079;28;45522;-69
2022/04/18 04:04:31;;;;;;;;;2.50;2.50;;;;;20.12;25.23;101159.88;4974724;28;45866;-65
2022/04/18 04:06:56;;;;;;;;;2.00;2.00;;;;;20.11;25.23;101158.16;4975342;28;45387;-70
2022/04/18 04:09:21;;;;;;;;;2.00;2.00;;;;;20.09;25.54;101152.94;4974117;28;45515;-66
2022/04/18 04:11:47;;;;;;;;;4.00;2.00;;;;;20.08;25.06;101154.75;4974533;28;45615;-70
2022/04/18 04:14:12;;;;;;;;;2.25;2.25;;;;;20.09;25.37;101150.31;4974556;28;46456;-68
2022/04/18 04:16:38;;;;;;;;;2.25;2.00;;;;;20.08;24.99;101154.75;4974433;28;45402;-68
2022/04/18 04:19:04;;;;;;;;;2.50;1.25;;;;;20.06;24.88;101143.44;4974513;28;45474;-63
2022/04/18 04:21:29;;;;;;;;;2.00;2.00;;;;;20.05;24.99;101144.34;4973587;28;45384;-51
2022/04/18 04:23:55;;;;;;;;;2.00;2.00;;;;;20.04;24.77;101150.53;4974507;28;49803;-65
2022/04/18 04:26:20;;;;;;;;;2.75;2.75;;;;;20.01;25.07;101150.69;4973028;28;46399;-60
2022/04/18 04:28:46;;;;;;;;;2.75;2.75;;;;;20.02;24.88;101159.44;4974524;28;45236;-64
2022/04/18 04:31:11;;;;;;;;;2.00;2.00;;;;;20.00;25.34;101143.75;4974721;28;45430;-59
2022/04/18 04:33:36;;;;;;;;;2.25;2.25;;;;;19.98;25.09;101156.09;4974166;28;45493;-58
2022/04/18 04:36:02;;;;;;;;;2.00;2.00;;;;;19.99;24.83;101151.69;4974328;28;45261;-52
2022/04/18 04:38:28;;;;;;;;;2.75;2.75;;;;;19.98;25.42;101150.84;4973273;28;45460;-50
2022/04/18 04:40:54;;;;;;;;;3.00;2.00;;;;;19.97;24.90;101157.03;4974449;28;45220;-51
2022/04/18 04:43:20;;;;;;;;;1.50;1.50;;;;;19.97;25.01;101164.94;4974023;28;45481;-61
2022/04/18 04:45:45;;;;;;;;;3.25;2.75;;;;;19.97;25.28;101162.28;4974086;28;45279;-63
2022/04/18 04:48:11;;;;;;;;;2.00;2.00;;;;;19.98;25.50;101165.75;4974186;28;45309;-55
2022/04/18 04:50:37;;;;;;;;;2.50;2.50;;;;;19.98;24.89;101155.25;4974350;28;45393;-65
2022/04/18 04:53:03;;;;;;;;;1.75;1.75;;;;;19.97;25.12;101154.41;4973903;28;47395;-63
2022/04/18 04:55:28;;;;;;;;;3.25;3.00;;;;;19.97;24.95;101158.78;4974327;28;45413;-64
2022/04/18 04:57:53;;;;;;;;;1.00;1.00;;;;;19.95;25.33;101156.25;4974069;28;45398;-63
2022/04/18 05:00:19;;;;;;;;;2.00;2.00;;;;;19.95;24.89;101155.41;4974325;28;45394;-69
2022/04/18 05:02:45;;;;;;;;;2.00;2.00;;;;;19.93;24.91;101158.97;4973780;28;46142;-65
2022/04/18 05:05:11;;;;;;;;;2.50;2.50;;;;;19.90;25.27;101152.97;4972637;28;45300;-67
2022/04/18 05:07:36;;;;;;;;;2.00;2.00;;;;;19.88;25.05;101152.22;4974103;28;45359;-65
2022/04/18 05:10:01;;;;;;;;;2.00;2.00;;;;;19.89;25.21;101153.94;4972832;28;45585;-57
2022/04/18 05:12:28;;;;;;;;;3.00;3.00;;;;;19.87;25.45;101158.41;4974101;28;45785;-65
2022/04/18 05:14:54;;;;;;;;;3.50;2.50;;;;;19.89;24.88;101162.66;4973741;28;45348;-67
2022/04/18 05:17:19;;;;;;;;;4.25;3.00;;;;;19.88;24.91;101155.69;4973766;28;45634;-65
2022/04/18 05:19:46;;;;;;;;;1.00;1.00;;;;;19.91;25.29;101162.56;4972611;28;45379;-63
2022/04/18 05:22:11;;;;;;;;;2.50;2.50;;;;;19.91;25.04;101159.94;4973359;28;47817;-67
2022/04/18 05:24:36;;;;;;;;;2.75;2.75;;;;;19.90;25.38;101163.50;4975932;28;45577;-62
2022/04/18 05:27:02;;;;;;;;;3.25;3.00;;;;;19.90;25.08;101161.72;4975583;28;45632;-58
2022/04/18 05:29:28;;;;;;;;;3.00;3.00;;;;;19.90;24.93;101172.25;4977247;28;45378;-64
2022/04/18 05:31:53;;;;;;;;;2.00;2.00;;;;;19.89;25.46;101173.19;4976509;28;46815;-67
2022/04/18 05:34:19;;;;;;;;;1.50;1.50;;;;;19.89;25.28;101172.34;4976317;28;45383;-66
2022/04/18 05:36:44;;;;;;;;;3.25;2.50;;;;;19.89;24.91;101174.97;4976557;28;45416;-68
2022/04/18 05:39:09;;;;;;;;;2.00;2.00;;;;;19.87;24.80;101175.03;4976554;28;45167;-68
2022/04/18 05:41:35;;;;;;;;;2.75;2.00;;;;;19.86;24.86;101183.84;4976159;28;45475;-68
2022/04/18 05:44:00;;;;;;;;;3.00;3.00;;;;;19.87;25.32;101180.28;4975305;28;46056;-65
2022/04/18 05:46:26;;;;;;;;;1.25;1.25;;;;;19.85;25.22;101182.09;4976473;28;45317;-67
2022/04/18 05:48:52;;;;;;;;;2.00;2.00;;;;;19.84;25.25;101183.03;4976596;28;45331;-55
2022/04/18 05:51:17;;;;;;;;;3.00;2.00;;;;;19.84;25.00;101185.69;4974829;28;46978;-53
2022/04/18 05:53:43;;;;;;;;;2.00;2.00;;;;;19.85;24.92;101186.50;4976016;28;45314;-65
2022/04/18 05:56:08;;;;;;;;;2.75;2.75;;;;;19.84;24.96;101190.94;4976198;28;45613;-63
2022/04/18 05:58:34;;;;;;;;;2.00;2.00;;;;;19.85;24.72;101195.25;4976625;28;45212;-64
2022/04/18 06:00:59;;;;;;;;;1.75;1.00;;;;;19.87;25.17;101189.97;4976312;28;46560;-52
2022/04/18 06:03:24;;;;;;;;;2.00;2.00;;;;;19.86;25.07;101189.09;4976052;28;45390;-51
2022/04/18 06:05:50;;;;;;;;;2.75;2.00;;;;;19.88;24.91;101191.66;4974712;28;45356;-57
2022/04/18 06:08:16;;;;;;;;;3.00;3.00;;;;;19.88;25.31;101196.94;4976150;28;45310;-54
2022/04/18 06:10:41;;;;;;;;;2.00;2.00;;;;;19.88;25.34;101197.78;4975898;28;47390;-64
2022/04/18 06:13:10;;;;;;;;;2.25;2.25;;;;;19.91;25.33;101202.91;4975854;28;45414;-62
2022/04/18 06:15:36;;;;;;;;;2.00;2.00;;;;;19.91;25.19;101196.78;4974836;28;45328;-56
2022/04/18 06:18:01;;;;;;;;;4.00;2.75;;;;;19.92;25.05;101201.97;4976191;28;45509;-61
2022/04/18 06:20:27;;;;;;;;;3.75;3.00;;;;;19.93;24.79;101208.06;4975716;28;45349;-61
2022/04/18 06:22:52;;;;;;;;;3.25;2.75;;;;;19.92;25.09;101203.75;4975665;28;45315;-62
2022/04/18 06:25:17;;;;;;;;;2.00;2.00;;;;;19.90;25.06;101203.81;4976033;28;45662;-64
2022/04/18 06:27:43;;;;;;;;;2.50;2.50;;;;;19.92;24.84;101209.00;4975963;28;45223;-59
2022/04/18 06:30:08;;;;;;;;;2.00;2.00;;;;;19.92;25.32;101206.38;4975760;28;45359;-52
2022/04/18 06:32:38;;;;;;;;;2.25;2.00;;;;;19.92;24.99;101203.75;4975987;28;45279;-57
2022/04/18 06:35:04;;;;;;;;;3.00;3.00;;;;;19.93;25.64;101201.06;4975845;28;45324;-63
2022/04/18 06:37:31;;;;;;;;;2.75;2.00;;;;;19.93;25.62;101203.69;4975766;28;45399;-57
2022/04/18 06:39:57;;;;;;;;;1.00;0.00;;;;;19.96;25.47;101205.31;4975640;28;46181;-62
2022/04/18 06:42:23;;;;;;;;;2.75;2.75;;;;;19.98;25.43;101203.47;4975597;28;45259;-62
2022/04/18 06:44:48;;;;;;;;;2.75;2.75;;;;;19.98;25.00;101208.72;4975744;28;45190;-62
2022/04/18 06:47:13;;;;;;;;;3.00;3.00;;;;;19.99;25.24;101205.19;4975936;28;45234;-64
2022/04/18 06:49:39;;;;;;;;;4.00;2.50;;;;;19.99;25.27;101202.53;4975577;28;46585;-57
2022/04/18 06:52:05;;;;;;;;;2.75;2.75;;;;;20.02;25.49;101212.91;4975847;28;45607;-62
2022/04/18 06:54:30;;;;;;;;;3.00;2.75;;;;;20.02;25.14;101207.63;4975699;28;45364;-56
2022/04/18 06:56:58;;;;;;;;;3.00;3.00;;;;;20.00;25.44;101201.63;4975667;28;45491;-60
2022/04/18 06:59:25;;;;;;;;;4.00;4.00;;;;;20.02;25.15;101196.28;4975127;28;45389;-68
2022/04/18 07:01:50;;;;;;;;;3.00;3.00;;;;;20.01;24.96;101202.47;4974086;28;45231;-67
2022/04/18 07:04:16;;;;;;;;;3.00;3.00;;;;;20.00;25.33;101199.00;4975452;28;45312;-67
2022/04/18 07:06:41;;;;;;;;;3.25;2.00;;;;;20.00;25.04;101206.88;4975553;28;45601;-66
2022/04/18 07:09:07;;;;;;;;;3.00;3.00;;;;;19.98;24.84;101195.56;4974014;28;52247;-67
2022/04/18 07:11:33;;;;;;;;;2.25;2.25;;;;;19.98;25.50;101195.56;4975417;28;45211;-64
2022/04/18 07:13:58;;;;;;;;;4.00;4.00;;;;;19.98;25.28;101206.09;4975418;28;45319;-65
2022/04/18 07:16:24;;;;;;;;;1.00;1.00;;;;;19.98;25.08;101202.59;4975425;28;45417;-67
2022/04/18 07:18:49;;;;;;;;;3.75;3.75;;;;;19.97;25.40;101207.03;4974970;28;45435;-67
2022/04/18 07:21:14;;;;;;;;;3.00;3.00;;;;;19.96;24.90;101205.31;4975404;28;45488;-67
2022/04/18 07:23:40;;;;;;;;;3.00;3.00;;;;;19.97;25.03;101209.66;4975646;28;45405;-64
2022/04/18 07:26:05;;;;;;;;;3.75;3.50;;;;;19.96;25.25;101201.81;4976091;28;45413;-67
2022/04/18 07:28:30;;;;;;;;;4.00;2.75;;;;;19.95;25.19;101200.13;4973722;28;48598;-63
2022/04/18 07:30:56;;;;;;;;;3.00;3.00;;;;;19.96;24.80;101205.31;4975105;28;45460;-66
2022/04/18 07:33:21;;;;;;;;;3.00;3.00;;;;;19.96;25.02;101196.56;4973842;28;45447;-60
2022/04/18 07:35:46;;;;;;;;;3.50;3.50;;;;;19.97;25.31;101201.75;4975184;28;45543;-60
2022/04/18 07:40:56;;;;;;;;;2.00;2.00;;;;;20.02;25.07;101210.28;4975061;28;45345;-61
2022/04/18 07:43:24;;;;;;;;;3.00;3.00;;;;;20.04;25.09;101207.59;4975241;28;45323;-50
2022/04/18 07:45:49;;;;;;;;;2.00;2.00;;;;;20.03;25.22;101204.09;4974433;28;45721;-50
2022/04/18 07:48:15;;;;;;;;;3.00;2.00;;;;;20.07;25.28;101202.16;4974859;28;45540;-60
2022/04/18 07:53:24;;;;;;;;;5.25;3.50;;;;;20.08;25.50;101210.00;4974964;28;45210;-52
2022/04/18 07:55:50;;;;;;;;;4.00;2.00;;;;;20.10;25.31;101209.06;4975022;28;45704;-58
2022/04/18 07:58:16;;;;;;;;;5.00;3.25;;;;;20.11;25.10;101202.88;4974534;28;45450;-61
2022/04/18 08:00:41;;;;;;;;;2.75;2.75;;;;;20.13;25.37;101203.63;4974528;28;45248;-59
2022/04/18 08:03:06;;;;;;;;;2.00;2.00;;;;;20.13;25.12;101207.16;4974926;28;45391;-62
2022/04/18 08:05:32;;;;;;;;;3.00;3.00;;;;;20.14;25.32;101206.22;4974734;28;45553;-62
2022/04/18 08:07:57;;;;;;;;;4.25;3.00;;;;;20.16;25.50;101212.28;4974188;28;45469;-52
2022/04/18 08:10:22;;;;;;;;;2.25;2.25;;;;;20.15;25.65;101200.03;4974327;28;45370;-50
2022/04/18 08:12:49;;;;;;;;;3.75;3.00;;;;;20.17;25.29;101205.22;4974364;28;45404;-53
2022/04/18 08:15:14;;;;;;;;;3.50;3.00;;;;;20.16;25.50;101212.28;4974674;28;45277;-64
2022/04/18 08:17:39;;;;;;;;;5.00;4.00;;;;;20.17;25.43;101207.84;4974396;28;46388;-67
2022/04/18 08:20:06;;;;;;;;;2.50;2.50;;;;;20.17;25.56;101208.72;4972761;28;45339;-64
2022/04/18 08:22:31;;;;;;;;;4.00;4.00;;;;;20.18;25.51;101209.56;4974764;28;45289;-67
2022/04/18 08:24:56;;;;;;;;;2.00;2.00;;;;;20.17;25.45;101200.81;4974726;28;45489;-68
2022/04/18 08:27:22;;;;;;;;;3.75;3.75;;;;;20.19;25.48;101201.56;4974371;28;45490;-67
2022/04/18 08:29:47;;;;;;;;;5.00;3.00;;;;;20.20;25.35;101200.66;4974294;28;45334;-67
2022/04/18 08:32:13;;;;;;;;;3.50;3.00;;;;;20.21;25.78;101205.00;4974475;28;45330;-65
2022/04/18 08:34:39;;;;;;;;;3.75;3.75;;;;;20.24;25.69;101196.94;4974843;28;45536;-56
2022/04/18 08:37:05;;;;;;;;;2.75;2.75;;;;;20.25;25.71;101200.44;4974115;28;45319;-61
2022/04/18 08:39:31;;;;;;;;;4.00;4.00;;;;;20.26;25.08;101201.28;4974154;28;45215;-58
2022/04/18 08:41:58;;;;;;;;;4.00;3.00;;;;;20.27;25.63;101193.31;4974243;28;45233;-60
2022/04/18 08:44:26;;;;;;;;;2.75;2.75;;;;;20.27;25.59;101195.94;4974452;28;45219;-56
2022/04/18 08:46:52;;;;;;;;;3.00;3.00;;;;;20.29;25.35;101190.59;4974036;28;46066;-64
2022/04/18 08:54:57;;;;;;;;;2.75;2.75;;;;;20.31;25.13;101192.25;4965838;28;45436;-61
2022/04/18 08:57:22;;;;;;;;;3.25;3.00;;;;;20.32;25.31;101195.72;4973664;28;46189;-67
2022/04/18 08:59:47;;;;;;;;;1.25;1.00;;;;;20.32;25.44;101199.22;4973940;28;45476;-68
2022/04/18 09:02:13;;;;;;;;;3.00;3.00;;;;;20.33;25.20;101190.41;4974373;28;45345;-66
2022/04/18 09:04:38;;;;;;;;;4.00;4.00;;;;;20.33;25.43;101193.03;4974178;28;45377;-67
2022/04/18 09:07:14;;;;;;;;;3.00;3.00;;;;;20.34;25.82;101189.44;4973753;28;46345;-52
2022/04/18 09:09:40;;;;;;;;;3.00;3.00;;;;;20.35;25.50;101196.41;4972914;28;45455;-56
2022/04/18 09:12:18;;;;;;;;;5.00;5.00;;;;;20.37;25.39;101193.72;4973789;28;45241;-56
2022/04/18 09:14:48;;;;;;;;;5.00;3.25;;;;;20.36;25.49;101192.84;4974228;28;45479;-54
2022/04/18 09:17:35;;;;;;;;;3.00;3.00;;;;;20.38;25.48;101193.66;4973651;28;46355;-54
2022/04/18 09:20:07;;;;;;;;;3.25;3.25;;;;;20.39;25.76;101190.09;4973342;28;45525;-60
2022/04/18 09:22:41;;;;;;;;;3.00;3.00;;;;;20.40;25.68;101188.28;4973734;28;45500;-55
2022/04/18 09:25:14;;;;;;;;;3.25;3.00;;;;;20.42;25.46;101190.88;4972460;28;45596;-58
2022/04/18 09:27:40;;;;;;;;;5.00;5.00;;;;;20.42;25.62;101190.88;4973507;28;46659;-58
2022/04/18 09:30:10;;;;;;;;;4.00;4.00;;;;;20.42;25.47;101185.59;4973449;28;45555;-53
2022/04/18 09:32:37;;;;;;;;;5.00;3.00;;;;;20.42;26.02;101188.22;4973629;28;45228;-59
2022/04/18 09:35:05;;;;;;;;;3.25;3.25;;;;;20.45;25.85;101190.72;4973733;28;45603;-64
2022/04/18 09:37:31;;;;;;;;;4.25;3.50;;;;;20.45;25.94;101183.66;4973205;28;46166;-63
2022/04/18 09:39:57;;;;;;;;;3.00;3.00;;;;;20.46;25.75;101182.75;4972110;28;45980;-62
2022/04/18 09:42:28;;;;;;;;;3.25;3.00;;;;;20.47;25.48;101183.56;4973553;28;45336;-58
2022/04/18 09:44:53;;;;;;;;;4.00;4.00;;;;;20.48;25.91;101172.13;4973492;28;45261;-61
2022/04/18 09:47:22;;;;;;;;;6.00;6.00;;;;;20.49;25.71;101187.00;4973141;28;46207;-60
2022/04/18 09:49:49;;;;;;;;;3.75;3.75;;;;;20.49;26.03;101184.34;4973023;28;45485;-57
2022/04/18 09:52:17;;;;;;;;;10.00;5.00;;;;;20.49;26.06;101179.09;4973294;28;45401;-66
2022/04/18 09:54:57;;;;;;;;;3.25;3.25;;;;;20.49;26.10;101179.97;4973685;28;45315;-55
2022/04/18 09:57:24;;;;;;;;;5.00;5.00;;;;;20.50;26.19;101183.44;4972831;28;46149;-55
2022/04/18 09:59:51;;;;;;;;;3.25;3.25;;;;;20.51;25.72;101179.88;4973024;28;45300;-51
2022/04/18 10:02:17;;;;;;;;;3.75;3.00;;;;;20.52;25.89;101178.94;4973210;28;45236;-49
2022/04/18 10:04:43;;;;;;;;;4.25;4.25;;;;;20.52;25.85;101181.59;4973536;28;45592;-50
2022/04/18 10:07:10;;;;;;;;;6.75;5.00;;;;;20.52;25.59;101171.06;4972807;28;45550;-54
2022/04/18 10:09:39;;;;;;;;;4.50;4.25;;;;;20.54;26.11;101171.84;4972811;28;45392;-50
2022/04/18 10:12:06;;;;;;;;;4.25;4.25;;;;;20.55;25.89;101161.22;4976129;28;45422;-48
2022/04/18 10:14:32;;;;;;;;;4.25;2.00;;;;;20.55;25.57;101166.47;4975002;28;45265;-49
2022/04/18 10:17:00;;;;;;;;;3.25;3.25;;;;;20.57;25.46;101165.56;4975849;28;46059;-56
2022/04/18 10:20:03;;;;;;;;;4.50;4.25;;;;;20.57;25.67;101158.50;4975700;28;45372;-49
2022/04/18 10:22:32;;;;;;;;;6.00;4.00;;;;;20.57;25.91;101163.75;4990391;28;45208;-52
2022/04/18 10:25:06;;;;;;;;;3.00;3.00;;;;;20.58;25.64;101167.25;4976293;28;45260;-62
2022/04/18 10:27:31;;;;;;;;;3.00;3.00;;;;;20.59;25.77;101168.97;4975762;28;47290;-63
2022/04/18 10:30:00;;;;;;;;;3.33;3.33;;;;;20.57;25.87;101163.75;4975975;28;45274;-66
2022/04/18 10:32:27;;;;;;;;;5.00;5.00;;;;;20.58;25.88;101165.47;4975998;28;45314;-68
2022/04/18 10:34:57;;;;;;;;;4.50;4.50;;;;;20.59;26.07;101167.16;4976227;28;45490;-67
2022/04/18 10:37:24;;;;;;;;;3.50;3.50;;;;;20.60;26.00;101163.59;4975618;28;46083;-68
2022/04/18 10:40:06;;;;;;;;;3.50;3.50;;;;;20.60;25.92;101162.78;4975790;28;45340;-59
2022/04/18 10:42:36;;;;;;;;;3.00;3.00;;;;;20.61;25.88;101153.94;4976038;28;45321;-67
2022/04/18 10:45:08;;;;;;;;;5.00;4.00;;;;;20.62;25.50;101150.34;4976101;28;45393;-67
2022/04/18 10:47:55;;;;;;;;;5.50;5.00;;;;;20.61;25.95;101154.78;4975272;28;45335;-63
2022/04/18 10:50:20;;;;;;;;;4.00;4.00;;;;;20.62;25.85;101145.97;4974390;28;45835;-64
2022/04/18 10:53:06;;;;;;;;;4.50;4.50;;;;;20.62;25.53;101140.69;4976024;28;45218;-62
2022/04/18 10:55:31;;;;;;;;;5.00;5.00;;;;;20.63;25.67;101146.78;4975806;28;45414;-64
2022/04/18 10:58:11;;;;;;;;;3.00;3.00;;;;;20.63;26.09;101142.41;4975252;28;45375;-65
2022/04/18 11:00:50;;;;;;;;;3.50;3.50;;;;;20.64;25.59;101143.22;4975220;28;45829;-61
2022/04/18 11:03:43;;;;;;;;;3.75;3.00;;;;;20.64;25.72;101136.19;4975873;28;45215;-53
2022/04/18 11:06:36;;;;;;;;;1.00;1.00;;;;;20.64;25.83;101130.94;4975703;28;45549;-63
2022/04/18 11:09:01;;;;;;;;;3.25;3.25;;;;;20.64;25.59;101137.97;4974980;28;45467;-65
2022/04/18 11:11:40;;;;;;;;;3.00;2.33;;;;;20.65;26.07;101137.03;4975245;28;45347;-62
2022/04/18 11:14:25;;;;;;;;;5.00;4.00;;;;;20.66;25.82;101136.97;4975286;28;45783;-58
2022/04/18 11:16:54;;;;;;;;;6.00;4.25;;;;;20.66;25.48;101144.00;4975553;28;45308;-51
2022/04/18 11:19:24;;;;;;;;;5.00;3.00;;;;;20.66;26.16;101134.34;4975191;28;46363;-66
2022/04/18 11:21:59;;;;;;;;;4.00;4.00;;;;;20.66;26.05;101131.72;4974423;28;45423;-64
2022/04/18 11:24:35;;;;;;;;;6.00;4.00;;;;;20.67;25.67;101130.75;4975191;28;45382;-66
2022/04/18 11:27:01;;;;;;;;;4.00;3.00;;;;;20.67;25.47;101128.13;4974173;28;45436;-68
2022/04/18 11:29:30;;;;;;;;;3.00;3.00;;;;;20.69;25.77;101126.25;4973786;28;48521;-68
2022/04/18 11:31:56;;;;;;;;;4.00;4.00;;;;;20.67;25.91;101122.84;4975289;28;45442;-59
2022/04/18 11:34:25;;;;;;;;;5.75;3.25;;;;;20.69;26.21;101123.63;4975231;28;45412;-59
2022/04/18 11:36:54;;;;;;;;;3.25;3.25;;;;;20.70;25.45;101116.59;4975564;28;45241;-57
2022/04/18 11:39:20;;;;;;;;;4.00;4.00;;;;;20.70;26.02;101114.81;4975296;28;46911;-68
2022/04/18 11:41:45;;;;;;;;;3.00;3.00;;;;;20.70;25.71;101114.81;4974848;28;45460;-64
2022/04/18 11:44:11;;;;;;;;;6.50;4.00;;;;;20.72;25.91;101113.88;4975040;28;45452;-64